Time;durP1;ratioP1;P1;durP2;ratioP2;P2;SDS_P1;SDS_P2;PMS_P1;PMS_P2;Temp;Humidity;BMP_temperature;BMP_pressure;BME280_temperature;BME280_humidity;BME280_pressure;Samples;Min_cycle;Max_cycle;Signal;HPM_P1;HPM_P2
2022/05/20 00:00:04;;;;;;;8.13;3.30;;;11.60;90.20;;;;;;5076684;28;20660;-75
2022/05/20 00:02:31;;;;;;;13.37;3.97;;;11.70;90.50;;;;;;5075807;28;20187;-74
2022/05/20 00:04:59;;;;;;;15.03;3.97;;;11.80;90.90;;;;;;5080596;28;20183;-73
2022/05/20 00:07:27;;;;;;;16.23;3.03;;;11.90;90.90;;;;;;5086466;28;20195;-74
2022/05/20 00:09:55;;;;;;;8.77;3.33;;;11.90;90.60;;;;;;5083782;28;20176;-73
2022/05/20 00:12:22;;;;;;;12.53;3.50;;;12.10;90.70;;;;;;5074273;28;20183;-74
2022/05/20 00:14:49;;;;;;;9.80;3.13;;;12.20;90.40;;;;;;5057600;28;20183;-74
2022/05/20 00:17:17;;;;;;;10.13;3.13;;;12.20;90.00;;;;;;5067326;28;20213;-74
2022/05/20 00:19:44;;;;;;;11.30;4.10;;;12.30;90.30;;;;;;5074930;28;20195;-74
2022/05/20 00:22:11;;;;;;;7.57;2.93;;;12.40;90.00;;;;;;5074780;28;20188;-73
2022/05/20 00:25:45;;;;;;;8.07;2.93;;;12.50;89.90;;;;;;5073318;28;20183;-72
2022/05/20 00:27:26;;;;;;;11.10;3.97;;;12.50;89.30;;;;;;5079588;28;20190;-72
2022/05/20 00:29:53;;;;;;;12.73;3.77;;;12.50;89.00;;;;;;5071203;28;20282;-73
2022/05/20 00:32:20;;;;;;;9.47;3.20;;;12.70;89.00;;;;;;5075052;28;20179;-73
2022/05/20 00:34:48;;;;;;;9.43;3.77;;;12.70;88.90;;;;;;5071296;28;20183;-72
2022/05/20 00:37:15;;;;;;;11.97;4.07;;;12.60;88.90;;;;;;5068418;28;20168;-74
2022/05/20 00:39:42;;;;;;;13.73;3.93;;;12.50;88.80;;;;;;5073007;28;20263;-73
2022/05/20 00:42:13;;;;;;;9.10;3.20;;;12.50;89.00;;;;;;5074453;28;20708;-73
2022/05/20 00:44:41;;;;;;;11.13;3.77;;;12.50;89.00;;;;;;5091099;28;20186;-73
2022/05/20 00:47:08;;;;;;;13.87;3.27;;;12.40;89.10;;;;;;5079966;28;20183;-73
2022/05/20 00:49:36;;;;;;;14.10;3.60;;;12.50;89.30;;;;;;5077424;28;20175;-75
2022/05/20 00:52:09;;;;;;;13.57;3.60;;;12.60;89.30;;;;;;5074081;28;20183;-74
2022/05/20 00:54:44;;;;;;;11.50;3.90;;;12.60;89.20;;;;;;5067139;28;20183;-74
2022/05/20 00:57:20;;;;;;;13.07;3.83;;;12.60;89.10;;;;;;5073519;28;20178;-74
2022/05/20 00:59:58;;;;;;;11.93;4.20;;;12.80;89.60;;;;;;5074586;28;20195;-76
2022/05/20 01:02:27;;;;;;;11.87;3.93;;;12.80;89.60;;;;;;5076236;28;20206;-75
2022/05/20 01:04:59;;;;;;;10.40;4.40;;;13.00;89.40;;;;;;5073616;28;20186;-74
2022/05/20 01:07:32;;;;;;;10.93;4.30;;;12.90;89.00;;;;;;5073137;28;20581;-75
2022/05/20 01:09:59;;;;;;;9.90;3.90;;;12.90;88.80;;;;;;5074070;28;20183;-75
2022/05/20 01:12:28;;;;;;;17.20;4.30;;;12.80;89.20;;;;;;5073353;28;20645;-78
2022/05/20 01:14:55;;;;;;;9.37;4.03;;;12.80;89.10;;;;;;5056480;28;20184;-78
2022/05/20 01:17:23;;;;;;;20.37;4.40;;;13.00;89.40;;;;;;5079815;28;20179;-76
2022/05/20 01:19:54;;;;;;;10.93;3.77;;;12.90;89.20;;;;;;5071211;28;20305;-77
2022/05/20 01:22:36;;;;;;;11.10;3.97;;;12.90;89.30;;;;;;5078165;28;20187;-78
2022/05/20 01:25:06;;;;;;;11.50;4.20;;;12.90;89.00;;;;;;5075272;28;20735;-80
2022/05/20 01:27:36;;;;;;;10.43;3.77;;;13.00;88.80;;;;;;5074101;28;20237;-80
2022/05/20 01:30:07;;;;;;;11.73;3.57;;;13.00;88.40;;;;;;5067555;28;20180;-81
2022/05/20 01:32:34;;;;;;;11.30;3.70;;;12.90;88.40;;;;;;5063627;28;20175;-82
2022/05/20 01:35:03;;;;;;;10.73;3.73;;;13.00;88.50;;;;;;5074280;28;20568;-83
2022/05/20 01:37:30;;;;;;;17.93;3.87;;;13.10;88.40;;;;;;5057115;28;20176;-79
2022/05/20 01:40:02;;;;;;;10.93;3.30;;;13.30;88.60;;;;;;5063472;28;20260;-81
2022/05/20 01:42:38;;;;;;;9.90;3.37;;;13.30;87.70;;;;;;5073039;28;20227;-82
2022/05/20 01:45:12;;;;;;;12.60;6.17;;;13.50;87.30;;;;;;5070951;28;20183;-77
2022/05/20 01:47:48;;;;;;;13.53;4.40;;;13.60;86.70;;;;;;5074384;28;20656;-84
2022/05/20 01:50:21;;;;;;;11.70;4.87;;;13.80;86.90;;;;;;5074492;28;20228;-83
2022/05/20 01:53:19;;;;;;;12.23;4.43;;;13.90;87.00;;;;;;5067634;28;20579;-76
2022/05/20 01:55:52;;;;;;;10.27;3.27;;;14.00;86.50;;;;;;5075310;28;20175;-89
2022/05/20 01:59:05;;;;;;;15.23;7.40;;;14.00;85.80;;;;;;5074704;28;20274;-85
2022/05/20 02:01:51;;;;;;;10.20;3.27;;;14.10;85.30;;;;;;5068468;28;20252;-86
2022/05/20 02:04:45;;;;;;;11.33;3.60;;;13.90;85.80;;;;;;5068438;28;20192;-84
2022/05/20 02:07:19;;;;;;;11.57;3.33;;;14.00;86.70;;;;;;5054391;28;20168;-83
2022/05/20 02:10:12;;;;;;;9.53;3.30;;;13.90;86.50;;;;;;5067354;28;20182;-87
2022/05/20 02:12:46;;;;;;;18.10;3.77;;;13.80;86.30;;;;;;5072785;28;20171;-79
2022/05/20 02:15:28;;;;;;;13.57;4.10;;;13.90;86.50;;;;;;5072411;28;20201;-85
2022/05/20 02:18:02;;;;;;;18.73;6.27;;;13.90;86.80;;;;;;5073740;28;20289;-80
2022/05/20 02:20:32;;;;;;;13.67;4.13;;;13.90;87.10;;;;;;5073913;28;20214;-84
2022/05/20 02:23:07;;;;;;;12.50;5.30;;;13.90;86.80;;;;;;5073558;28;20210;-88
2022/05/20 02:25:42;;;;;;;12.40;4.00;;;13.80;87.40;;;;;;5053724;28;20549;-81
2022/05/20 02:28:22;;;;;;;13.23;7.53;;;13.80;87.50;;;;;;5054601;28;20182;-78
2022/05/20 02:30:51;;;;;;;11.47;6.40;;;13.80;88.10;;;;;;5073081;28;20248;-81
2022/05/20 02:33:24;;;;;;;14.03;4.60;;;13.80;88.60;;;;;;5073675;28;20174;-85
2022/05/20 02:35:52;;;;;;;12.23;5.00;;;13.80;89.10;;;;;;5066717;28;20587;-74
2022/05/20 02:38:22;;;;;;;20.20;4.50;;;13.70;89.90;;;;;;5085633;28;20364;-76
2022/05/20 02:40:52;;;;;;;16.67;4.30;;;13.40;90.00;;;;;;5071094;28;20203;-72
2022/05/20 02:43:21;;;;;;;12.00;4.23;;;13.20;90.40;;;;;;5069315;28;20294;-73
2022/05/20 02:45:50;;;;;;;14.63;4.27;;;13.20;90.90;;;;;;5070634;28;20573;-73
2022/05/20 02:48:19;;;;;;;14.17;4.03;;;13.20;91.20;;;;;;5071818;28;20836;-73
2022/05/20 02:50:49;;;;;;;11.30;3.70;;;13.30;91.50;;;;;;5069556;28;20513;-75
2022/05/20 02:53:17;;;;;;;14.67;4.20;;;13.30;91.60;;;;;;5071362;28;20278;-73
2022/05/20 02:55:44;;;;;;;11.43;4.30;;;13.30;91.60;;;;;;5072106;28;20187;-71
2022/05/20 03:04:09;;;;;;;16.80;4.30;;;13.40;91.90;;;;;;5072682;28;20175;-75
2022/05/20 03:06:37;;;;;;;18.87;4.47;;;13.60;91.90;;;;;;5090025;28;20247;-73
2022/05/20 03:09:06;;;;;;;11.53;4.20;;;13.70;92.00;;;;;;5077952;28;20187;-77
2022/05/20 03:11:34;;;;;;;17.87;6.13;;;13.70;91.90;;;;;;5072478;28;20183;-75
2022/05/20 03:14:05;;;;;;;18.20;5.33;;;13.70;91.90;;;;;;5072262;28;20183;-74
2022/05/20 03:16:33;;;;;;;11.70;4.53;;;13.80;92.00;;;;;;5064323;28;20183;-74
2022/05/20 03:19:00;;;;;;;11.80;4.17;;;13.80;92.10;;;;;;5062094;28;20179;-73
2022/05/20 03:21:28;;;;;;;14.43;4.43;;;13.80;92.10;;;;;;5071224;28;20313;-73
2022/05/20 03:23:55;;;;;;;16.27;4.80;;;13.80;92.10;;;;;;5066332;28;20295;-72
2022/05/20 03:26:22;;;;;;;11.27;4.50;;;13.90;92.20;;;;;;5071653;28;20655;-74
2022/05/20 03:28:50;;;;;;;13.93;4.60;;;14.00;92.40;;;;;;5071065;28;20217;-73
2022/05/20 03:31:17;;;;;;;14.50;4.70;;;14.00;92.20;;;;;;5071479;28;20690;-73
2022/05/20 03:33:46;;;;;;;15.97;4.37;;;14.10;92.20;;;;;;5072765;28;20625;-72
2022/05/20 03:36:14;;;;;;;15.77;4.23;;;14.30;92.20;;;;;;5090585;28;20656;-73
2022/05/20 03:38:41;;;;;;;9.83;3.67;;;14.30;91.80;;;;;;5092209;28;20249;-72
2022/05/20 03:41:10;;;;;;;9.23;3.67;;;14.20;91.80;;;;;;5085987;28;20216;-71
2022/05/20 03:43:38;;;;;;;13.03;4.10;;;14.20;91.70;;;;;;5087325;28;20224;-72
2022/05/20 03:46:05;;;;;;;10.53;3.70;;;14.20;91.70;;;;;;5088261;28;20187;-72
2022/05/20 03:48:32;;;;;;;13.73;4.40;;;14.20;91.90;;;;;;5069059;28;20261;-75
2022/05/20 03:51:09;;;;;;;9.20;3.87;;;14.30;91.70;;;;;;5068725;28;20206;-73
2022/05/20 03:53:37;;;;;;;10.40;4.00;;;14.40;92.10;;;;;;5086508;28;20632;-73
2022/05/20 03:56:05;;;;;;;10.60;3.80;;;14.50;92.00;;;;;;5087158;28;20252;-73
2022/05/20 03:58:32;;;;;;;15.47;4.27;;;14.70;92.00;;;;;;5072138;28;20289;-73
2022/05/20 04:03:46;;;;;;;11.33;3.90;;;14.80;91.50;;;;;;5068764;28;20232;-74
2022/05/20 04:06:14;;;;;;;14.70;3.77;;;14.80;91.60;;;;;;5065755;28;20229;-74
2022/05/20 04:08:42;;;;;;;11.10;4.17;;;14.80;91.50;;;;;;5069616;28;20215;-74
2022/05/20 04:11:12;;;;;;;10.23;3.50;;;14.90;91.50;;;;;;5069053;28;20195;-73
2022/05/20 04:13:40;;;;;;;10.43;3.80;;;15.00;91.20;;;;;;5073789;28;20246;-74
2022/05/20 04:16:10;;;;;;;11.13;3.90;;;15.10;91.10;;;;;;5077295;28;20189;-73
2022/05/20 04:18:46;;;;;;;14.50;3.50;;;15.00;90.40;;;;;;5085057;28;20549;-71
2022/05/20 04:21:15;;;;;;;11.10;3.33;;;15.00;90.40;;;;;;5072504;28;20253;-72
2022/05/20 04:23:43;;;;;;;9.47;3.67;;;15.00;90.30;;;;;;5074470;28;20977;-72
2022/05/20 04:26:11;;;;;;;12.83;5.73;;;15.00;90.20;;;;;;5070622;28;20266;-72
2022/05/20 04:28:39;;;;;;;17.30;6.97;;;14.90;90.10;;;;;;5082106;28;20181;-72
2022/05/20 04:31:11;;;;;;;18.70;7.77;;;14.90;90.40;;;;;;5095273;28;20617;-72
2022/05/20 04:33:39;;;;;;;16.40;4.77;;;14.90;90.50;;;;;;5095278;28;20167;-72
2022/05/20 04:36:07;;;;;;;11.40;3.93;;;14.90;90.50;;;;;;5091950;28;20717;-72
2022/05/20 04:38:35;;;;;;;11.30;4.30;;;14.80;90.60;;;;;;5095023;28;20199;-74
2022/05/20 04:49:18;;;;;;;8.17;2.67;;;14.80;91.40;;;;;;5074232;28;20232;-72
2022/05/20 04:51:46;;;;;;;8.67;3.53;;;14.80;91.50;;;;;;5074536;28;20225;-72
2022/05/20 04:56:59;;;;;;;13.73;3.67;;;14.80;91.90;;;;;;5094421;28;20266;-72
2022/05/20 04:59:26;;;;;;;15.93;3.93;;;14.80;92.00;;;;;;5090948;28;20175;-73
2022/05/20 05:01:53;;;;;;;13.13;4.73;;;14.80;92.10;;;;;;5091804;28;20183;-75
2022/05/20 05:04:21;;;;;;;13.43;4.80;;;14.90;92.40;;;;;;5091442;28;20189;-72
2022/05/20 05:06:49;;;;;;;14.73;4.43;;;14.80;92.50;;;;;;5072127;28;20225;-73
2022/05/20 05:09:17;;;;;;;14.93;4.37;;;14.80;92.50;;;;;;5072383;28;20179;-72
2022/05/20 05:11:45;;;;;;;10.03;3.37;;;15.00;92.70;;;;;;5073904;28;20209;-73
2022/05/20 05:14:14;;;;;;;14.80;4.50;;;14.90;92.60;;;;;;5079865;28;20179;-73
2022/05/20 05:16:43;;;;;;;13.03;3.87;;;15.00;92.60;;;;;;5093078;28;20179;-75
2022/05/20 05:19:11;;;;;;;11.77;3.97;;;15.00;92.50;;;;;;5080201;28;20214;-73
2022/05/20 05:21:39;;;;;;;18.70;4.10;;;14.90;92.60;;;;;;5057360;28;20526;-71
2022/05/20 05:24:06;;;;;;;14.77;5.10;;;14.90;92.60;;;;;;5076960;28;20184;-72
2022/05/20 05:26:35;;;;;;;16.13;4.43;;;14.90;92.70;;;;;;5073955;28;20588;-71
2022/05/20 05:29:04;;;;;;;15.00;5.03;;;15.00;92.60;;;;;;5084273;28;20187;-73
2022/05/20 05:31:32;;;;;;;14.30;4.93;;;15.00;92.60;;;;;;5092558;28;20186;-73
2022/05/20 05:33:59;;;;;;;13.40;4.77;;;15.00;92.70;;;;;;5073033;28;20179;-73
2022/05/20 05:36:27;;;;;;;10.17;3.70;;;15.10;92.60;;;;;;5071286;28;20498;-74
2022/05/20 05:38:55;;;;;;;16.57;4.97;;;15.20;92.60;;;;;;5073226;28;20222;-73
2022/05/20 05:41:22;;;;;;;17.73;4.10;;;15.10;92.60;;;;;;5073166;28;20215;-73
2022/05/20 05:43:50;;;;;;;15.63;3.93;;;15.00;92.30;;;;;;5073317;28;20223;-74
2022/05/20 05:46:17;;;;;;;12.83;3.93;;;15.00;92.20;;;;;;5073534;28;20535;-74
2022/05/20 05:48:44;;;;;;;12.33;4.33;;;15.00;92.30;;;;;;5073407;28;20252;-74
2022/05/20 05:51:12;;;;;;;11.67;4.13;;;15.10;92.40;;;;;;5074925;28;20191;-74
2022/05/20 05:53:39;;;;;;;18.10;4.30;;;15.00;92.30;;;;;;5061861;28;20183;-73
2022/05/20 05:56:09;;;;;;;13.20;4.13;;;15.00;92.50;;;;;;5072884;28;20618;-74
2022/05/20 05:58:40;;;;;;;17.50;4.33;;;15.00;92.40;;;;;;5073443;28;20181;-74
2022/05/20 06:01:07;;;;;;;13.37;3.90;;;14.90;92.50;;;;;;5072862;28;20567;-76
2022/05/20 06:03:35;;;;;;;12.73;4.10;;;14.90;92.40;;;;;;5073359;28;20174;-75
2022/05/20 06:06:03;;;;;;;12.37;4.30;;;14.80;92.40;;;;;;5073278;28;20183;-74
2022/05/20 06:08:30;;;;;;;11.17;3.93;;;14.80;92.50;;;;;;5073680;28;20282;-74
2022/05/20 06:10:58;;;;;;;10.77;3.73;;;14.80;92.50;;;;;;5072218;28;20219;-75
2022/05/20 06:13:27;;;;;;;16.17;4.07;;;14.80;92.70;;;;;;5072726;28;20175;-74
2022/05/20 06:15:56;;;;;;;17.00;4.33;;;14.80;92.70;;;;;;5082211;28;20216;-74
2022/05/20 06:18:24;;;;;;;11.17;3.93;;;14.90;92.70;;;;;;5074322;28;20183;-74
2022/05/20 06:20:51;;;;;;;14.80;4.60;;;14.90;92.70;;;;;;5072063;28;20229;-74
2022/05/20 06:23:18;;;;;;;19.93;5.03;;;14.90;92.80;;;;;;5073139;28;20217;-75
2022/05/20 06:25:46;;;;;;;13.53;4.37;;;14.90;92.80;;;;;;5071135;28;20363;-74
2022/05/20 06:28:16;;;;;;;17.27;4.80;;;14.90;93.00;;;;;;5071987;28;20187;-74
2022/05/20 06:30:44;;;;;;;19.93;6.40;;;14.90;92.90;;;;;;5081974;28;20233;-74
2022/05/20 06:33:12;;;;;;;12.20;4.50;;;14.80;93.00;;;;;;5084270;28;20279;-74
2022/05/20 06:41:11;;;;;;;19.40;5.20;;;14.80;93.00;;;;;;5083119;28;20217;-76
2022/05/20 06:43:38;;;;;;;19.53;5.43;;;14.80;93.30;;;;;;5075652;28;20223;-74
2022/05/20 06:46:06;;;;;;;12.87;4.50;;;14.80;93.30;;;;;;5085608;28;20183;-75
2022/05/20 06:48:49;;;;;;;17.90;5.50;;;14.80;93.30;;;;;;5093116;28;20182;-75
2022/05/20 06:51:19;;;;;;;18.70;5.93;;;14.80;93.30;;;;;;5092674;28;20167;-75
2022/05/20 06:53:48;;;;;;;15.13;5.43;;;14.80;93.40;;;;;;5073104;28;20175;-75
2022/05/20 06:56:16;;;;;;;19.90;5.80;;;14.80;93.40;;;;;;5076076;28;20230;-76
2022/05/20 06:58:44;;;;;;;18.77;5.63;;;14.80;93.40;;;;;;5072964;28;20523;-75
2022/05/20 07:01:12;;;;;;;16.07;5.83;;;14.80;93.40;;;;;;5071838;28;20221;-74
2022/05/20 07:03:40;;;;;;;19.90;5.50;;;14.80;93.50;;;;;;5073321;28;20172;-75
2022/05/20 07:06:08;;;;;;;14.63;5.47;;;14.80;93.70;;;;;;5071561;28;20629;-74
2022/05/20 07:08:37;;;;;;;21.23;5.90;;;14.90;93.80;;;;;;5074799;28;20187;-74
2022/05/20 07:11:05;;;;;;;14.70;4.50;;;14.80;93.70;;;;;;5092623;28;20190;-74
2022/05/20 07:13:33;;;;;;;19.53;6.40;;;14.80;93.70;;;;;;5092540;28;20179;-76
2022/05/20 07:16:00;;;;;;;24.57;6.50;;;14.80;93.70;;;;;;5086697;28;20178;-75
2022/05/20 07:18:28;;;;;;;14.77;4.90;;;14.80;93.70;;;;;;5085201;28;20176;-76
2022/05/20 07:20:56;;;;;;;13.47;4.03;;;14.80;93.40;;;;;;5069598;28;20619;-74
2022/05/20 07:23:25;;;;;;;16.03;4.93;;;14.80;93.10;;;;;;5073086;28;21998;-74
2022/05/20 07:25:52;;;;;;;24.20;5.93;;;14.80;93.00;;;;;;5074969;28;20183;-76
2022/05/20 07:28:20;;;;;;;17.83;4.37;;;14.80;92.90;;;;;;5071338;28;20638;-78
2022/05/20 07:30:47;;;;;;;18.23;3.57;;;14.80;92.90;;;;;;5072831;28;20182;-75
2022/05/20 07:33:15;;;;;;;13.27;3.07;;;14.80;92.60;;;;;;5075356;28;20256;-75
2022/05/20 07:35:42;;;;;;;13.93;3.30;;;14.70;92.50;;;;;;5072542;28;20186;-76
2022/05/20 07:38:10;;;;;;;15.23;3.60;;;14.70;92.70;;;;;;5069993;28;20232;-76
2022/05/20 07:40:37;;;;;;;15.07;3.30;;;14.70;92.80;;;;;;5070915;28;20205;-77
2022/05/20 07:43:05;;;;;;;15.47;3.53;;;14.60;92.90;;;;;;5071229;28;20219;-80
2022/05/20 07:45:32;;;;;;;8.67;3.63;;;14.60;92.90;;;;;;5065639;28;20186;-79
2022/05/20 07:47:59;;;;;;;12.07;3.33;;;14.60;93.00;;;;;;5071429;28;20168;-76
2022/05/20 07:50:27;;;;;;;12.30;3.70;;;14.60;92.90;;;;;;5077956;28;20180;-79
2022/05/20 07:55:46;;;;;;;13.33;3.30;;;14.50;92.90;;;;;;5080330;28;20218;-75
2022/05/20 07:58:17;;;;;;;14.67;2.93;;;14.50;93.10;;;;;;5069520;28;20187;-75
2022/05/20 08:00:45;;;;;;;9.83;2.57;;;14.60;93.10;;;;;;5066670;28;20211;-73
2022/05/20 08:04:52;;;;;;;16.77;3.23;;;14.50;93.10;;;;;;5074131;28;20171;-75
2022/05/20 08:06:00;;;;;;;10.27;2.97;;;14.50;93.20;;;;;;5075123;28;20629;-74
2022/05/20 08:08:28;;;;;;;10.53;3.27;;;14.50;93.30;;;;;;5076420;28;20179;-75
2022/05/20 08:10:55;;;;;;;10.60;3.70;;;14.50;93.30;;;;;;5075023;28;20247;-75
2022/05/20 08:13:23;;;;;;;12.13;3.23;;;14.50;93.30;;;;;;5075751;28;20266;-75
2022/05/20 08:15:50;;;;;;;12.43;3.47;;;14.40;93.20;;;;;;5084036;28;20202;-74
2022/05/20 08:18:18;;;;;;;11.77;3.03;;;14.40;93.20;;;;;;5076982;28;20179;-76
2022/05/20 08:20:46;;;;;;;13.77;3.73;;;14.40;93.20;;;;;;5072362;28;20216;-75
2022/05/20 08:23:13;;;;;;;12.53;4.13;;;14.40;93.30;;;;;;5068585;28;20182;-76
2022/05/20 08:25:40;;;;;;;16.37;3.93;;;14.30;93.20;;;;;;5055049;28;20263;-75
2022/05/20 08:28:08;;;;;;;14.63;3.87;;;14.30;93.30;;;;;;5055193;28;20165;-75
2022/05/20 08:30:35;;;;;;;15.90;3.83;;;14.30;93.30;;;;;;5055452;28;20176;-76
2022/05/20 08:33:02;;;;;;;13.60;4.20;;;14.30;93.30;;;;;;5055023;28;20193;-77
2022/05/20 08:35:30;;;;;;;21.43;4.50;;;14.30;93.40;;;;;;5055312;28;20657;-75
2022/05/20 08:37:57;;;;;;;19.30;4.67;;;14.20;93.30;;;;;;5054561;28;20183;-75
2022/05/20 08:40:46;;;;;;;19.77;4.80;;;14.20;93.50;;;;;;5054861;28;20202;-77
2022/05/20 08:43:14;;;;;;;15.20;5.90;;;14.20;93.50;;;;;;5053834;28;20562;-75
2022/05/20 08:45:41;;;;;;;16.03;4.50;;;14.10;93.60;;;;;;5055036;28;20175;-75
2022/05/20 08:48:11;;;;;;;17.70;4.97;;;14.10;93.70;;;;;;5054916;28;20176;-75
2022/05/20 08:50:46;;;;;;;16.67;5.30;;;14.10;93.60;;;;;;5053556;28;20306;-74
2022/05/20 08:53:21;;;;;;;21.47;5.20;;;14.00;93.60;;;;;;5067372;28;20546;-77
2022/05/20 08:55:49;;;;;;;15.87;5.00;;;14.00;93.60;;;;;;5054354;28;20167;-78
2022/05/20 08:58:23;;;;;;;18.17;5.03;;;14.00;93.80;;;;;;5055048;28;20172;-75
2022/05/20 09:00:51;;;;;;;15.90;4.50;;;14.00;93.80;;;;;;5053959;28;20211;-74
2022/05/20 09:03:18;;;;;;;16.93;5.80;;;14.00;93.80;;;;;;5054776;28;20164;-74
2022/05/20 09:05:47;;;;;;;15.17;4.97;;;14.20;93.80;;;;;;5054692;28;20175;-75
2022/05/20 09:08:26;;;;;;;19.17;5.10;;;14.10;93.80;;;;;;5055024;28;20662;-77
2022/05/20 09:11:01;;;;;;;15.47;5.60;;;14.10;93.70;;;;;;5054471;28;20211;-76
2022/05/20 09:16:23;;;;;;;17.10;5.03;;;14.10;93.60;;;;;;5074934;28;20178;-78
2022/05/20 09:19:08;;;;;;;15.33;5.27;;;14.00;93.50;;;;;;5074370;28;20186;-78
2022/05/20 09:21:47;;;;;;;19.10;5.30;;;14.00;93.50;;;;;;5067061;28;20307;-77
2022/05/20 09:24:23;;;;;;;20.87;5.30;;;14.00;93.50;;;;;;5073909;28;20179;-77
2022/05/20 09:27:04;;;;;;;20.97;5.77;;;14.00;93.60;;;;;;5074695;28;20182;-75
2022/05/20 09:29:41;;;;;;;17.43;5.47;;;14.00;93.60;;;;;;5074549;28;20522;-78
2022/05/20 09:32:22;;;;;;;24.87;6.57;;;13.90;93.70;;;;;;5074044;28;20179;-77
2022/05/20 09:35:01;;;;;;;19.30;7.60;;;13.90;93.70;;;;;;5074365;28;20643;-77
2022/05/20 09:37:33;;;;;;;17.27;7.77;;;13.80;93.70;;;;;;5069928;28;20643;-79
2022/05/20 09:40:31;;;;;;;25.37;8.50;;;13.80;93.80;;;;;;5064168;28;20439;-74
2022/05/20 09:43:03;;;;;;;24.67;8.90;;;13.80;94.00;;;;;;5071404;28;20219;-79
2022/05/20 09:45:43;;;;;;;22.77;8.63;;;13.70;93.90;;;;;;5073976;28;20512;-78
2022/05/20 09:48:15;;;;;;;21.90;7.00;;;13.70;94.00;;;;;;5073720;28;20182;-80
2022/05/20 09:51:07;;;;;;;18.00;6.93;;;13.80;94.20;;;;;;5074046;28;20178;-78
2022/05/20 09:53:40;;;;;;;18.50;6.67;;;13.70;94.20;;;;;;5066569;28;20222;-79
2022/05/20 09:56:24;;;;;;;15.93;6.00;;;13.50;94.10;;;;;;5052147;28;20543;-79
2022/05/20 09:59:07;;;;;;;18.97;6.97;;;13.50;94.20;;;;;;5070321;28;20179;-79
2022/05/20 10:01:34;;;;;;;18.97;7.10;;;13.40;94.30;;;;;;5073113;28;20795;-78
2022/05/20 10:04:08;;;;;;;29.03;7.67;;;13.50;94.50;;;;;;5072563;28;20180;-78
2022/05/20 10:06:46;;;;;;;17.70;8.57;;;13.50;94.50;;;;;;5073683;28;20175;-79
2022/05/20 10:09:16;;;;;;;22.63;7.93;;;13.50;94.50;;;;;;5073628;28;20657;-80
2022/05/20 10:12:05;;;;;;;19.37;8.33;;;13.40;94.40;;;;;;5056952;28;20204;-80
2022/05/20 10:14:41;;;;;;;24.53;8.00;;;13.40;94.50;;;;;;5053646;28;20171;-77
2022/05/20 10:17:48;;;;;;;18.27;6.57;;;13.40;94.60;;;;;;5057725;28;20180;-77
2022/05/20 10:20:37;;;;;;;18.70;7.13;;;13.40;94.60;;;;;;5073313;28;20294;-75
2022/05/20 10:23:35;;;;;;;22.67;7.27;;;13.40;94.60;;;;;;5072795;28;20193;-75
2022/05/20 10:26:10;;;;;;;20.63;7.17;;;13.40;94.60;;;;;;5070944;28;20282;-75
2022/05/20 10:34:27;;;;;;;22.27;6.80;;;13.50;94.60;;;;;;5072707;28;20312;-76
2022/05/20 10:37:03;;;;;;;23.03;6.93;;;13.50;94.70;;;;;;5073024;28;20182;-76
2022/05/20 10:39:54;;;;;;;16.27;6.53;;;13.50;94.80;;;;;;5072449;28;20182;-77
2022/05/20 10:42:44;;;;;;;17.27;6.47;;;13.50;94.70;;;;;;5072720;28;20623;-76
2022/05/20 10:48:35;;;;;;;19.20;7.10;;;13.50;94.80;;;;;;5052677;28;20187;-75
2022/05/20 10:51:08;;;;;;;18.33;6.80;;;13.50;94.80;;;;;;5052889;28;20191;-75
2022/05/20 10:53:59;;;;;;;16.10;6.60;;;13.50;94.70;;;;;;5065170;28;20259;-75
2022/05/20 10:56:26;;;;;;;22.53;7.37;;;13.50;94.80;;;;;;5055222;28;20180;-75
2022/05/20 10:59:29;;;;;;;20.37;6.80;;;13.60;94.80;;;;;;5072694;28;20183;-74
2022/05/20 11:02:30;;;;;;;21.70;8.13;;;13.60;94.80;;;;;;5072624;28;20217;-74
2022/05/20 11:05:26;;;;;;;25.37;7.90;;;13.70;94.80;;;;;;5072758;28;20633;-73
2022/05/20 11:08:01;;;;;;;14.40;6.87;;;13.60;94.80;;;;;;5072773;28;20175;-74
2022/05/20 11:10:53;;;;;;;18.13;6.93;;;13.70;94.90;;;;;;5071810;28;20177;-72
2022/05/20 11:13:36;;;;;;;30.77;7.97;;;13.70;94.90;;;;;;5079673;28;20219;-71
2022/05/20 11:16:15;;;;;;;20.00;7.17;;;13.70;95.00;;;;;;5086195;28;20170;-73
2022/05/20 11:19:24;;;;;;;20.80;6.70;;;13.70;95.00;;;;;;5084699;28;20186;-72
2022/05/20 11:22:16;;;;;;;21.90;6.07;;;13.80;95.10;;;;;;5075615;28;20214;-71
2022/05/20 11:25:00;;;;;;;19.40;5.27;;;13.80;95.10;;;;;;5072538;28;20202;-71
2022/05/20 11:28:00;;;;;;;19.73;5.37;;;13.80;95.10;;;;;;5079357;28;20202;-73
2022/05/20 11:30:57;;;;;;;15.30;6.73;;;13.80;95.10;;;;;;5092221;28;20273;-73
2022/05/20 11:33:31;;;;;;;19.80;6.70;;;13.80;95.20;;;;;;5092325;28;20253;-73
2022/05/20 11:36:15;;;;;;;28.03;6.23;;;13.80;95.20;;;;;;5095803;28;20231;-73
2022/05/20 11:39:37;;;;;;;24.33;5.93;;;13.80;95.20;;;;;;5073015;28;20179;-73
2022/05/20 11:42:36;;;;;;;16.93;6.37;;;13.80;95.10;;;;;;5075045;28;20286;-72
2022/05/20 11:45:10;;;;;;;18.93;6.83;;;13.80;95.20;;;;;;5094974;28;20198;-74
2022/05/20 11:47:53;;;;;;;21.20;6.30;;;13.70;95.20;;;;;;5062660;28;20186;-75
2022/05/20 11:50:56;;;;;;;17.33;5.17;;;13.80;95.30;;;;;;5094469;28;20637;-75
2022/05/20 11:53:30;;;;;;;18.03;6.07;;;13.80;95.10;;;;;;5072534;28;20210;-73
2022/05/20 11:56:05;;;;;;;12.63;5.27;;;13.80;95.00;;;;;;5075660;28;20187;-73
2022/05/20 11:58:50;;;;;;;15.33;5.67;;;13.80;95.00;;;;;;5073487;28;20179;-73
2022/05/20 12:01:19;;;;;;;16.07;4.40;;;13.80;94.90;;;;;;5081306;28;20768;-72
2022/05/20 12:06:33;;;;;;;17.20;5.73;;;13.80;94.80;;;;;;5091841;28;20380;-73
2022/05/20 12:09:03;;;;;;;14.87;5.43;;;13.80;94.80;;;;;;5081715;28;20181;-73
2022/05/20 12:11:41;;;;;;;18.10;4.60;;;13.80;94.80;;;;;;5084812;28;20191;-73
2022/05/20 12:14:19;;;;;;;17.87;5.10;;;13.70;94.80;;;;;;5092752;28;20182;-74
2022/05/20 12:17:06;;;;;;;21.27;5.47;;;13.80;94.90;;;;;;5075882;28;20210;-73
2022/05/20 12:26:07;;;;;;;17.37;6.87;;;13.60;95.00;;;;;;5087736;28;20199;-73
2022/05/20 12:28:37;;;;;;;20.13;6.43;;;13.60;95.00;;;;;;5076111;28;20179;-75
2022/05/20 12:31:18;;;;;;;16.40;6.50;;;13.50;95.10;;;;;;5075556;28;20235;-74
2022/05/20 12:33:56;;;;;;;13.57;5.77;;;13.50;95.10;;;;;;5073690;28;20171;-73
2022/05/20 12:36:43;;;;;;;17.30;8.40;;;13.50;95.10;;;;;;5077944;28;20210;-74
2022/05/20 12:39:12;;;;;;;21.43;7.17;;;13.40;95.00;;;;;;5079439;28;20183;-74
2022/05/20 12:41:59;;;;;;;16.27;6.50;;;13.40;95.10;;;;;;5074559;28;20207;-74
2022/05/20 12:44:35;;;;;;;16.40;6.73;;;13.30;95.10;;;;;;5062308;28;20301;-74
2022/05/20 12:47:37;;;;;;;18.13;6.87;;;13.30;95.10;;;;;;5070871;28;20186;-75
2022/05/20 12:50:20;;;;;;;14.23;7.33;;;13.40;95.30;;;;;;5055058;28;20274;-73
2022/05/20 12:52:59;;;;;;;16.40;7.40;;;13.40;95.30;;;;;;5066231;28;20188;-73
2022/05/20 12:55:40;;;;;;;21.63;7.07;;;13.50;95.30;;;;;;5064092;28;20171;-74
2022/05/20 12:58:14;;;;;;;14.53;7.10;;;13.50;95.30;;;;;;5092370;28;20656;-73
2022/05/20 13:00:47;;;;;;;14.90;6.43;;;13.50;95.30;;;;;;5068089;28;20199;-73
2022/05/20 13:03:34;;;;;;;14.83;6.70;;;13.50;95.30;;;;;;5072640;28;20186;-72
2022/05/20 13:06:03;;;;;;;20.00;6.70;;;13.50;95.30;;;;;;5074382;28;20175;-71
2022/05/20 13:08:50;;;;;;;17.57;7.37;;;13.50;95.30;;;;;;5074785;28;20198;-71
2022/05/20 13:11:23;;;;;;;17.67;6.97;;;13.50;95.30;;;;;;5073859;28;20179;-71
2022/05/20 13:13:59;;;;;;;20.70;7.77;;;13.40;95.30;;;;;;5073125;28;20255;-71
2022/05/20 13:16:27;;;;;;;14.30;7.00;;;13.40;95.40;;;;;;5071331;28;20239;-71
2022/05/20 13:19:04;;;;;;;15.27;7.17;;;13.40;95.50;;;;;;5074026;28;20167;-71
2022/05/20 13:21:40;;;;;;;15.43;6.73;;;13.40;95.40;;;;;;5073139;28;20322;-72
2022/05/20 13:24:19;;;;;;;11.47;6.73;;;13.40;95.50;;;;;;5056419;28;20184;-72
2022/05/20 13:26:46;;;;;;;13.50;6.87;;;13.30;95.50;;;;;;5055782;28;20172;-72
2022/05/20 13:29:19;;;;;;;17.30;6.90;;;13.30;95.50;;;;;;5073976;28;20171;-72
2022/05/20 13:31:47;;;;;;;10.67;6.00;;;13.30;95.60;;;;;;5074696;28;20175;-72
2022/05/20 13:34:15;;;;;;;12.00;5.93;;;13.30;95.60;;;;;;5073942;28;20183;-72
2022/05/20 13:36:49;;;;;;;17.23;6.33;;;13.30;95.60;;;;;;5074372;28;20183;-73
2022/05/20 13:39:23;;;;;;;17.40;6.80;;;13.30;95.70;;;;;;5074167;28;20550;-73
2022/05/20 13:41:51;;;;;;;20.70;6.60;;;13.30;95.70;;;;;;5073476;28;20238;-73
2022/05/20 13:44:23;;;;;;;15.50;6.53;;;13.40;95.70;;;;;;5073761;28;20709;-73
2022/05/20 13:49:39;;;;;;;15.10;6.27;;;13.30;95.70;;;;;;5073688;28;20182;-73
2022/05/20 13:52:12;;;;;;;15.57;6.87;;;13.30;95.80;;;;;;5073612;28;20600;-73
2022/05/20 13:54:43;;;;;;;21.03;6.27;;;13.30;95.80;;;;;;5073602;28;20176;-73
2022/05/20 13:57:34;;;;;;;13.17;6.37;;;13.30;95.80;;;;;;5073302;28;20192;-74
2022/05/20 14:00:14;;;;;;;14.10;6.47;;;13.30;95.90;;;;;;5073193;28;20240;-74